Michigan City, IN

2:20 AM CDT on March 27, 2015 (GMT -0500)
Starke County | | Change Station
CLOSE
Current Station
Airport
Location: Knox,
Elevation: 686 ft
Nearby Weather Stations

Elev 686 ft 41.33 °N, 86.66 °W | Updated 5 minutes ago

Overcast
Overcast
30 °F
Feels Like 19 °F
N
15
Wind Variable Wind from North
Gusts 20 mph

Today
High -- | Low -- °F
--% Chance of Precip.
Yesterday
High -- | Low -- °F
Precip. -- in
6:39 AM 7:07 PM
Waxing Crescent, 50% visible
Pressure 30.02 in
Visibility 10.0 miles
Clouds
Windchill 19 °F
Dew Point 18 °F
Humidity 60%
Rainfall 0.00 in
Snow Depth Not available.
UV Not available.
Pollen 1.10 out of 12
Air Quality Not available.
Flu Activity Not available.
METAR KOXI 270715Z AUTO 36013G17KT 10SM M01/M08 A3002 RMK AO1

More Conditions Fewer Conditions

Pressure 30.02 in
Visibility 10.0 miles
Clouds
Windchill 19 °F
Dew Point 18 °F
Humidity 60%
Rainfall 0.00 in
Snow Depth Not available.
UV Not available.
Pollen 1.10 out of 12
Air Quality Not available.
Flu Activity Not available.
METAR KOXI 270715Z AUTO 36013G17KT 10SM M01/M08 A3002 RMK AO1

More Conditions Fewer Conditions

10-Day Weather Forecast

Almanac

Astronomy

Mar. 27, 2015 Rise Set
Actual Time
Civil Twilight
Nautical Twilight
Astronomical Twilight
Moon
Length of Visible Light
Length of Day
Tomorrow will be .
, % of the Moon is Illuminated

Today's Extremes

State Highs State Lows

Community

WunderPhotos

Upload Photos

1,808,701 photos uploaded!

WunderBlogs® & News

Nearby

Air Quality

  Air Quality AQ Index Pollutant
Not available.

Snow Depth

Station Depth Elevation

Earthquake Activity

City Distance Mag. Time & Date
Minimum magnitude displayed is 2.5.

Coastal Water Temperatures

Place Temperature

Stations

Nearby Weather Stations

Station Location Temp. Windchill Dew Point Humidity Wind Precip. Elev Updated Type